Time;durP1;ratioP1;P1;durP2;ratioP2;P2;SDS_P1;SDS_P2;PMS_P1;PMS_P2;Temp;Humidity;BMP_temperature;BMP_pressure;BME280_temperature;BME280_humidity;BME280_pressure;Samples;Min_cycle;Max_cycle;Signal;HPM_P1;HPM_P2
2022/04/19 00:00:27;;;;;;;2.30;2.10;;;;;;;6.01;96.36;99986.66;5043099;28;20205;-56
2022/04/19 00:02:53;;;;;;;2.73;2.33;;;;;;;5.95;96.64;99987.44;5040729;28;20485;-57
2022/04/19 00:05:18;;;;;;;3.37;2.60;;;;;;;5.92;96.94;99976.31;5038496;28;20212;-54
2022/04/19 00:07:44;;;;;;;2.03;1.90;;;;;;;5.86;96.96;99974.56;5042799;28;20414;-55
2022/04/19 00:10:11;;;;;;;2.70;2.10;;;;;;;5.82;97.16;99971.97;5041325;28;20184;-56
2022/04/19 00:12:37;;;;;;;2.50;2.30;;;;;;;5.76;97.16;99976.22;5037870;28;20208;-56
2022/04/19 00:15:03;;;;;;;2.40;2.20;;;;;;;5.70;97.24;99973.59;5035968;28;20272;-55
2022/04/19 00:17:29;;;;;;;4.30;2.30;;;;;;;5.70;97.82;99970.19;5035331;28;20226;-55
2022/04/19 00:19:54;;;;;;;3.03;2.73;;;;;;;5.66;98.30;99966.75;5048015;28;20192;-56
2022/04/19 00:22:20;;;;;;;2.63;2.43;;;;;;;5.59;98.17;99975.25;5047141;28;20278;-56
2022/04/19 00:24:46;;;;;;;2.40;2.20;;;;;;;5.52;98.55;99976.09;5040122;28;20233;-57
2022/04/19 00:27:12;;;;;;;2.73;2.43;;;;;;;5.46;98.75;99970.06;5044207;28;20188;-56
2022/04/19 00:29:41;;;;;;;2.70;2.50;;;;;;;5.44;99.10;99970.91;5042757;28;20237;-56
2022/04/19 00:32:11;;;;;;;3.10;2.73;;;;;;;5.42;98.93;99964.91;5045421;28;20254;-55
2022/04/19 00:34:37;;;;;;;2.87;2.50;;;;;;;5.39;99.05;99965.72;5041538;28;20206;-56
2022/04/19 00:37:02;;;;;;;3.10;2.50;;;;;;;5.37;99.36;99977.66;5040028;28;20199;-56
2022/04/19 00:39:28;;;;;;;2.77;2.57;;;;;;;5.34;99.58;99964.84;5041033;28;20603;-57
2022/04/19 00:41:55;;;;;;;2.53;2.33;;;;;;;5.31;99.81;99972.50;5039928;28;20268;-55
2022/04/19 00:44:23;;;;;;;3.00;2.70;;;;;;;5.26;100.00;99969.91;5040139;28;20643;-56
2022/04/19 00:46:48;;;;;;;3.60;2.50;;;;;;;5.21;100.00;99968.16;5036870;28;20270;-54
2022/04/19 00:49:13;;;;;;;2.90;2.43;;;;;;;5.19;100.00;99968.13;5041640;28;20286;-55
2022/04/19 00:51:39;;;;;;;3.90;2.60;;;;;;;5.17;100.00;99975.84;5041365;28;20284;-54
2022/04/19 00:54:05;;;;;;;2.40;2.20;;;;;;;5.16;100.00;99962.97;5040273;28;20225;-55
2022/04/19 00:56:30;;;;;;;3.27;2.50;;;;;;;5.15;100.00;99962.13;5035903;28;20249;-55
2022/04/19 00:58:56;;;;;;;3.00;2.70;;;;;;;5.12;100.00;99962.09;5036578;28;20201;-55
2022/04/19 01:01:21;;;;;;;2.80;2.60;;;;;;;5.12;100.00;99962.09;5040720;28;20593;-56
2022/04/19 01:03:46;;;;;;;3.33;3.03;;;;;;;5.11;100.00;99964.66;5036482;28;20220;-54
2022/04/19 01:06:12;;;;;;;3.07;2.83;;;;;;;5.09;100.00;99959.50;5043090;28;20190;-56
2022/04/19 01:08:38;;;;;;;2.73;2.53;;;;;;;5.07;100.00;99962.91;5039780;28;20198;-55
2022/04/19 01:13:47;;;;;;;3.00;2.70;;;;;;;4.99;100.00;99963.69;5038834;28;20218;-54
2022/04/19 01:16:13;;;;;;;3.43;3.00;;;;;;;4.97;100.00;99959.41;5043201;28;20187;-56
2022/04/19 01:18:38;;;;;;;3.00;2.70;;;;;;;4.94;100.00;99957.69;5035281;28;20195;-55
2022/04/19 01:21:04;;;;;;;3.13;2.80;;;;;;;4.95;100.00;99958.53;5041448;28;20180;-56
2022/04/19 01:23:29;;;;;;;3.00;2.80;;;;;;;4.93;100.00;99955.97;5042038;28;20252;-54
2022/04/19 01:25:54;;;;;;;3.97;2.93;;;;;;;4.92;100.00;99955.94;5046007;28;20294;-56
2022/04/19 01:28:20;;;;;;;4.90;3.00;;;;;;;4.90;100.00;99950.78;5039411;28;20566;-56
2022/04/19 01:30:52;;;;;;;3.20;3.00;;;;;;;4.86;100.00;99955.03;5037447;28;20342;-55
2022/04/19 01:33:18;;;;;;;3.30;3.00;;;;;;;4.83;100.00;99952.44;5032953;28;20667;-56
2022/04/19 01:35:43;;;;;;;3.53;2.97;;;;;;;4.78;100.00;99954.09;5036053;28;20223;-55
2022/04/19 01:38:09;;;;;;;3.27;2.97;;;;;;;4.74;100.00;99954.94;5046403;28;20625;-55
2022/04/19 01:40:34;;;;;;;3.37;3.07;;;;;;;4.69;100.00;99957.44;5041790;28;20194;-53
2022/04/19 01:43:02;;;;;;;3.40;3.10;;;;;;;4.67;100.00;99950.59;5042178;28;20218;-56
2022/04/19 01:45:29;;;;;;;3.70;3.03;;;;;;;4.60;100.00;99953.94;5038288;28;20273;-56
2022/04/19 01:47:56;;;;;;;3.20;2.90;;;;;;;4.53;100.00;99956.44;5037268;28;20191;-56
2022/04/19 01:50:24;;;;;;;3.80;3.50;;;;;;;4.50;100.00;99943.59;5037731;28;20186;-55
2022/04/19 01:52:50;;;;;;;3.67;3.03;;;;;;;4.48;100.00;99946.97;5037050;28;20308;-56
2022/04/19 01:55:17;;;;;;;3.30;3.00;;;;;;;4.46;100.00;99943.53;5038459;28;20191;-55
2022/04/19 01:57:43;;;;;;;3.10;2.80;;;;;;;4.49;100.00;99946.13;5036380;28;20219;-57
2022/04/19 02:00:09;;;;;;;3.20;2.90;;;;;;;4.49;100.00;99943.56;5040361;28;20215;-56
2022/04/19 02:02:35;;;;;;;3.27;2.97;;;;;;;4.47;100.00;99946.09;5044574;28;20202;-56
2022/04/19 02:05:00;;;;;;;3.90;3.07;;;;;;;4.45;100.00;99941.81;5049741;28;20211;-55
2022/04/19 02:07:26;;;;;;;3.40;3.10;;;;;;;4.41;100.00;99944.34;5041350;28;20183;-57
2022/04/19 02:09:51;;;;;;;3.63;3.20;;;;;;;4.36;100.00;99946.00;5036526;28;20237;-57
2022/04/19 02:12:17;;;;;;;3.30;2.97;;;;;;;4.32;100.00;99945.94;5041465;28;20272;-56
2022/04/19 02:14:42;;;;;;;3.50;3.20;;;;;;;4.26;100.00;99942.50;5040435;28;20203;-56
2022/04/19 02:17:11;;;;;;;3.60;3.30;;;;;;;4.23;100.00;99939.88;5033588;28;20209;-55
2022/04/19 02:19:37;;;;;;;3.60;3.30;;;;;;;4.21;100.00;99933.88;5029104;28;20195;-56
2022/04/19 02:22:09;;;;;;;4.43;3.27;;;;;;;4.20;100.00;99937.28;5038399;28;20302;-55
2022/04/19 02:24:35;;;;;;;3.50;3.20;;;;;;;4.16;100.00;99938.09;5038554;28;20633;-56
2022/04/19 02:27:01;;;;;;;3.30;3.00;;;;;;;4.11;100.00;99942.31;5048281;28;20222;-54
2022/04/19 02:29:27;;;;;;;3.77;3.07;;;;;;;4.06;100.00;99943.94;5038126;28;20187;-55
2022/04/19 02:31:53;;;;;;;4.60;3.47;;;;;;;4.03;100.00;99939.66;5039399;28;20560;-54
2022/04/19 02:34:18;;;;;;;3.83;3.50;;;;;;;4.04;100.00;99943.94;5040736;28;20215;-55
2022/04/19 02:36:45;;;;;;;3.40;3.10;;;;;;;4.04;100.00;99940.50;5036368;28;20252;-56
2022/04/19 02:39:11;;;;;;;3.50;3.20;;;;;;;4.01;100.00;99940.50;5042634;28;20213;-56
2022/04/19 02:41:37;;;;;;;3.13;2.83;;;;;;;4.00;100.00;99934.50;5036483;28;20266;-57
2022/04/19 02:44:04;;;;;;;3.50;3.20;;;;;;;4.01;100.00;99932.81;5044737;28;20245;-53
2022/04/19 02:46:30;;;;;;;3.23;2.90;;;;;;;4.03;100.00;99933.66;5035922;28;20225;-56
2022/04/19 02:48:57;;;;;;;3.40;3.10;;;;;;;4.04;100.00;99928.56;5040465;28;20186;-54
2022/04/19 02:51:23;;;;;;;3.43;3.13;;;;;;;4.06;100.00;99929.47;5040831;28;20189;-56
2022/04/19 02:53:48;;;;;;;3.27;2.97;;;;;;;4.07;100.00;99927.75;5034655;28;20210;-56
2022/04/19 02:56:14;;;;;;;3.40;3.10;;;;;;;4.11;100.00;99926.94;5043749;28;20198;-57
2022/04/19 02:58:39;;;;;;;3.13;2.83;;;;;;;4.11;100.00;99929.50;5032535;28;20245;-55
2022/04/19 03:01:04;;;;;;;3.37;3.10;;;;;;;4.11;100.00;99922.66;5039516;28;20202;-56
2022/04/19 03:03:30;;;;;;;3.10;2.80;;;;;;;4.08;100.00;99917.50;5038337;28;20214;-56
2022/04/19 03:05:56;;;;;;;3.43;2.90;;;;;;;4.04;100.00;99920.00;5040403;28;20257;-56
2022/04/19 03:08:22;;;;;;;2.83;2.63;;;;;;;3.97;100.00;99912.28;5038598;28;20631;-55
2022/04/19 03:10:47;;;;;;;3.33;3.03;;;;;;;3.93;100.00;99917.34;5036151;28;20234;-55
2022/04/19 03:13:13;;;;;;;3.53;3.23;;;;;;;3.91;100.00;99911.34;5031294;28;20663;-55
2022/04/19 03:15:38;;;;;;;4.57;3.40;;;;;;;3.87;100.00;99923.22;5036393;28;20187;-54
2022/04/19 03:18:04;;;;;;;3.70;3.40;;;;;;;3.85;100.00;99918.94;5033109;28;20198;-55
2022/04/19 03:20:29;;;;;;;3.53;3.23;;;;;;;3.79;100.00;99918.00;5035591;28;20187;-54
2022/04/19 03:28:22;;;;;;;3.83;3.43;;;;;;;3.59;100.00;99909.25;5041835;28;20675;-54
2022/04/19 03:30:48;;;;;;;3.73;3.43;;;;;;;3.56;100.00;99909.19;5038682;28;20194;-55
2022/04/19 03:33:16;;;;;;;4.23;3.57;;;;;;;3.54;100.00;99914.31;5038309;28;20286;-55
2022/04/19 03:35:41;;;;;;;3.90;3.60;;;;;;;3.53;100.00;99919.38;5037285;28;20182;-54
2022/04/19 03:38:08;;;;;;;4.07;3.67;;;;;;;3.49;100.00;99924.44;5036917;28;20240;-55
2022/04/19 03:40:34;;;;;;;4.03;3.73;;;;;;;3.44;100.00;99920.97;5036748;28;20715;-55
2022/04/19 03:42:59;;;;;;;4.00;3.70;;;;;;;3.39;100.00;99922.59;5037515;28;20235;-56
2022/04/19 03:45:25;;;;;;;5.57;3.60;;;;;;;3.34;100.00;99919.09;5045075;28;20317;-56
2022/04/19 03:47:51;;;;;;;4.20;3.83;;;;;;;3.34;100.00;99924.22;5040997;28;20555;-57
2022/04/19 03:50:16;;;;;;;4.50;3.93;;;;;;;3.33;100.00;99927.63;5043401;28;20187;-55
2022/04/19 03:52:44;;;;;;;3.60;3.30;;;;;;;3.34;100.00;99926.78;5038587;28;20269;-57
2022/04/19 03:55:09;;;;;;;4.67;3.43;;;;;;;3.33;100.00;99930.16;5044686;28;20186;-56
2022/04/19 03:57:34;;;;;;;3.40;3.10;;;;;;;3.33;100.00;99931.06;5038266;28;20649;-55
2022/04/19 04:02:35;;;;;;;4.17;3.77;;;;;;;3.33;100.00;99923.38;6014956;22;20282;-54
2022/04/19 04:05:00;;;;;;;5.57;3.73;;;;;;;3.31;100.00;99934.44;5061587;28;20214;-56
2022/04/19 04:07:28;;;;;;;4.30;3.90;;;;;;;3.26;100.00;99933.50;5059972;28;20226;-54
2022/04/19 04:09:54;;;;;;;3.80;3.50;;;;;;;3.22;100.00;99931.72;5061544;28;20188;-55
2022/04/19 04:12:20;;;;;;;3.87;3.53;;;;;;;3.17;100.00;99924.84;5058920;28;20182;-56
2022/04/19 04:14:45;;;;;;;3.93;3.60;;;;;;;3.14;100.00;99931.59;5045968;28;20223;-55
2022/04/19 04:17:11;;;;;;;4.30;3.60;;;;;;;3.11;100.00;99942.66;5042774;28;20284;-56
2022/04/19 04:19:36;;;;;;;4.40;3.90;;;;;;;3.07;100.00;99933.19;5047133;28;20193;-55
2022/04/19 04:22:02;;;;;;;4.23;3.77;;;;;;;3.03;100.00;99936.53;5047056;28;20554;-56
2022/04/19 04:24:28;;;;;;;3.90;3.60;;;;;;;3.00;100.00;99942.47;5046896;28;20210;-55
2022/04/19 04:26:53;;;;;;;4.27;3.60;;;;;;;2.98;100.00;99940.72;5045609;28;20644;-56
2022/04/19 04:29:19;;;;;;;3.73;3.43;;;;;;;2.97;100.00;99942.41;5048391;28;20197;-56
2022/04/19 04:31:44;;;;;;;3.70;3.40;;;;;;;2.98;100.00;99935.63;5046477;28;20805;-53
2022/04/19 04:34:10;;;;;;;4.17;3.53;;;;;;;2.99;100.00;99933.06;5034085;28;20199;-54
2022/04/19 04:36:35;;;;;;;4.00;3.70;;;;;;;3.04;100.00;99943.38;5041658;28;20191;-55
2022/04/19 04:39:01;;;;;;;3.73;3.43;;;;;;;3.08;100.00;99944.31;5047582;28;20187;-56
2022/04/19 04:41:26;;;;;;;4.37;3.97;;;;;;;3.10;100.00;99943.47;5047541;28;20191;-56
2022/04/19 04:43:52;;;;;;;4.13;3.73;;;;;;;3.12;100.00;99944.38;5045345;28;20227;-56
2022/04/19 04:51:50;;;;;;;4.47;4.07;;;;;;;3.19;100.00;99943.63;5048952;28;20286;-54
2022/04/19 04:54:16;;;;;;;5.80;4.27;;;;;;;3.23;100.00;99948.78;5051085;28;20278;-55
2022/04/19 04:56:41;;;;;;;4.43;4.03;;;;;;;3.27;100.00;99943.72;5048826;28;20797;-56
2022/04/19 04:59:06;;;;;;;5.27;4.30;;;;;;;3.31;100.00;99953.19;5050627;28;20198;-56
2022/04/19 05:01:32;;;;;;;6.83;4.13;;;;;;;3.39;100.00;99949.91;5050834;28;20280;-54
2022/04/19 05:03:57;;;;;;;7.10;4.10;;;;;;;3.45;100.00;99944.84;5045128;28;20221;-56
2022/04/19 05:06:23;;;;;;;4.10;3.77;;;;;;;3.55;100.00;99948.41;5048048;28;20193;-54
2022/04/19 05:08:48;;;;;;;6.30;4.37;;;;;;;3.62;100.00;99940.84;5050475;28;20241;-55
2022/04/19 05:11:15;;;;;;;7.13;3.97;;;;;;;3.70;100.00;99952.91;5043144;28;20768;-54
2022/04/19 05:13:40;;;;;;;6.27;4.20;;;;;;;3.76;100.00;99948.72;5042141;28;20234;-55
2022/04/19 05:16:05;;;;;;;5.87;3.53;;;;;;;3.85;100.00;99958.22;5047500;28;20660;-55
2022/04/19 05:18:31;;;;;;;4.50;3.77;;;;;;;3.95;100.00;99956.63;5045372;28;20187;-54
2022/04/19 05:20:56;;;;;;;9.90;6.13;;;;;;;4.06;100.00;99952.50;5043570;28;20193;-54
2022/04/19 05:23:22;;;;;;;12.20;7.20;;;;;;;4.24;100.00;99953.53;5041209;28;20198;-53
2022/04/19 05:25:47;;;;;;;12.77;9.07;;;;;;;4.46;100.00;99956.34;5048008;28;20215;-56
2022/04/19 05:28:13;;;;;;;11.03;7.07;;;;;;;5.00;100.00;99956.88;5042848;28;20190;-54
2022/04/19 05:30:38;;;;;;;10.33;5.83;;;;;;;5.76;100.00;99958.25;5041356;28;21815;-54
2022/04/19 05:33:05;;;;;;;6.40;4.73;;;;;;;6.41;100.00;99960.25;5037981;28;20838;-55
2022/04/19 05:35:31;;;;;;;6.97;4.00;;;;;;;6.82;99.73;99953.47;5036453;28;20656;-55
2022/04/19 05:37:58;;;;;;;3.90;3.50;;;;;;;7.42;97.79;99950.03;5047381;28;20659;-54
2022/04/19 05:40:23;;;;;;;5.50;3.43;;;;;;;8.33;95.14;99961.78;5046248;28;20197;-54
2022/04/19 05:42:49;;;;;;;3.83;3.10;;;;;;;9.26;91.71;99950.84;5044364;28;20203;-55
2022/04/19 05:45:14;;;;;;;6.23;5.53;;;;;;;10.12;88.85;99956.81;5048311;28;20218;-55
2022/04/19 05:47:40;;;;;;;5.77;5.17;;;;;;;10.89;86.56;99956.66;5045260;28;20614;-55
2022/04/19 05:50:09;;;;;;;7.73;5.73;;;;;;;11.53;84.47;99957.31;5049171;28;20198;-55
2022/04/19 05:52:34;;;;;;;9.93;5.73;;;;;;;12.06;82.70;99965.84;5046854;28;20199;-53
2022/04/19 05:54:59;;;;;;;8.53;5.40;;;;;;;12.25;81.80;99955.94;5046631;28;20186;-54
2022/04/19 05:57:25;;;;;;;8.03;5.40;;;;;;;12.44;81.25;99957.25;5047532;28;20199;-55
2022/04/19 05:59:50;;;;;;;6.07;4.67;;;;;;;12.83;80.33;99966.75;5051018;28;20179;-53
2022/04/19 06:04:59;;;;;;;4.40;4.00;;;;;;;13.59;77.70;99959.69;5049578;28;20260;-54
2022/04/19 06:07:30;;;;;;;4.97;3.60;;;;;;;14.03;76.26;99967.19;5044503;28;20201;-55
2022/04/19 06:09:56;;;;;;;8.57;4.13;;;;;;;14.44;74.52;99954.69;5047721;28;20209;-54
2022/04/19 06:12:22;;;;;;;7.90;3.87;;;;;;;14.65;73.21;99965.38;5043668;28;20185;-55
2022/04/19 06:14:47;;;;;;;8.27;3.40;;;;;;;14.76;71.83;99965.91;5032328;28;20189;-55
2022/04/19 06:17:17;;;;;;;6.73;3.27;;;;;;;14.99;71.37;99963.47;5049751;28;20196;-55
2022/04/19 06:19:46;;;;;;;5.73;3.17;;;;;;;15.08;70.58;99963.16;5041905;28;20224;-55
2022/04/19 06:22:11;;;;;;;6.33;3.00;;;;;;;15.34;69.85;99951.84;5043228;28;20188;-56
2022/04/19 06:24:37;;;;;;;3.93;2.93;;;;;;;15.48;69.54;99961.81;5044890;28;20369;-55
2022/04/19 06:27:03;;;;;;;6.40;2.93;;;;;;;15.65;69.04;99958.63;5039611;28;20198;-55
2022/04/19 06:29:28;;;;;;;4.37;2.70;;;;;;;15.75;68.75;99963.50;5036729;28;20658;-55
2022/04/19 06:31:54;;;;;;;5.50;2.70;;;;;;;15.87;68.50;99960.50;5039058;28;20200;-55
2022/04/19 06:34:19;;;;;;;8.47;3.03;;;;;;;16.17;67.85;99962.03;5042980;28;20209;-55
2022/04/19 06:36:44;;;;;;;7.03;3.07;;;;;;;16.45;67.37;99960.06;5044489;28;20195;-55
2022/04/19 06:39:10;;;;;;;7.20;3.10;;;;;;;16.59;66.41;99967.38;5028598;28;20256;-55
2022/04/19 06:41:36;;;;;;;6.70;3.33;;;;;;;16.76;66.07;99968.47;5035572;28;20187;-55
2022/04/19 06:44:02;;;;;;;5.50;3.07;;;;;;;17.00;65.50;99971.03;5043705;28;20242;-55
2022/04/19 06:46:28;;;;;;;4.10;2.83;;;;;;;17.13;65.01;99967.00;5042643;28;20317;-55
2022/04/19 06:48:56;;;;;;;2.70;2.50;;;;;;;17.20;64.24;99964.97;5039193;28;20187;-56
2022/04/19 06:51:22;;;;;;;6.43;2.93;;;;;;;17.16;63.10;99958.19;5027177;28;20190;-54
2022/04/19 06:53:48;;;;;;;4.83;2.90;;;;;;;17.17;62.54;99971.19;5046732;28;20220;-56
2022/04/19 06:56:14;;;;;;;3.80;2.47;;;;;;;17.26;63.04;99972.56;5044504;28;20557;-54
2022/04/19 06:58:39;;;;;;;3.63;2.70;;;;;;;17.36;62.76;99970.44;5044916;28;20288;-57
2022/04/19 07:01:06;;;;;;;49.33;7.10;;;;;;;17.52;62.61;99970.59;5043044;28;20191;-55
2022/04/19 07:03:33;;;;;;;8.27;3.37;;;;;;;17.67;62.50;99969.94;5024920;28;20691;-57
2022/04/19 07:05:58;;;;;;;3.97;2.50;;;;;;;17.78;62.83;99966.00;5042151;28;20214;-56
2022/04/19 07:08:24;;;;;;;3.47;2.40;;;;;;;17.83;62.51;99964.03;5043656;28;20472;-56
2022/04/19 07:10:49;;;;;;;2.57;2.37;;;;;;;17.80;62.48;99969.41;5049580;28;20563;-57
2022/04/19 07:13:15;;;;;;;2.50;2.30;;;;;;;17.73;62.74;99963.59;5043579;28;20712;-56
2022/04/19 07:15:40;;;;;;;5.73;2.67;;;;;;;17.66;63.03;99963.00;5041456;28;20187;-56
2022/04/19 07:18:06;;;;;;;3.33;2.43;;;;;;;17.55;62.93;99962.63;5038179;28;20210;-55
2022/04/19 07:28:43;;;;;;;2.60;2.40;;;;;;;16.70;63.40;99964.34;5040536;28;20220;-55
2022/04/19 07:31:09;;;;;;;4.73;2.30;;;;;;;16.42;63.78;99967.19;5039869;28;20311;-53
2022/04/19 07:33:37;;;;;;;3.87;2.70;;;;;;;16.24;64.34;99963.50;5039455;28;20210;-55
2022/04/19 07:36:06;;;;;;;3.20;2.60;;;;;;;16.06;64.61;99959.81;5037599;28;20189;-54
2022/04/19 07:38:32;;;;;;;2.67;2.43;;;;;;;15.89;64.48;99958.66;5039755;28;20236;-55
2022/04/19 07:40:59;;;;;;;3.50;2.80;;;;;;;15.60;65.13;99954.47;5041737;28;20194;-54
2022/04/19 07:43:25;;;;;;;2.83;2.50;;;;;;;15.36;65.15;99964.84;5038316;28;20216;-54
2022/04/19 07:45:50;;;;;;;3.17;2.60;;;;;;;15.12;65.62;99953.50;5036020;28;20217;-55
2022/04/19 07:48:16;;;;;;;3.53;2.47;;;;;;;15.00;66.35;99959.97;5039195;28;20183;-54
2022/04/19 07:50:42;;;;;;;4.30;2.43;;;;;;;14.89;66.44;99950.75;5038495;28;20684;-55
2022/04/19 07:53:10;;;;;;;3.47;2.47;;;;;;;14.65;65.99;99954.94;5021161;28;20678;-54
2022/04/19 07:55:36;;;;;;;2.80;2.60;;;;;;;14.44;66.71;99954.69;5042200;28;20187;-56
2022/04/19 07:58:02;;;;;;;2.93;2.20;;;;;;;14.31;67.67;99955.97;5036881;28;20216;-55
2022/04/19 08:00:27;;;;;;;2.77;2.47;;;;;;;14.27;68.30;99946.53;5023027;28;20284;-56
2022/04/19 08:02:55;;;;;;;3.30;3.00;;;;;;;14.14;68.80;99939.09;5040569;28;20221;-54
2022/04/19 08:05:21;;;;;;;3.30;3.00;;;;;;;14.03;69.01;99939.41;5036283;28;20553;-56
2022/04/19 08:07:48;;;;;;;3.30;3.00;;;;;;;14.01;69.76;99938.59;5036515;28;20188;-53
2022/04/19 08:10:14;;;;;;;2.87;2.57;;;;;;;14.07;70.04;99940.16;5041972;28;20186;-55
2022/04/19 08:12:39;;;;;;;3.60;2.70;;;;;;;14.01;69.98;99930.78;5042810;28;20561;-55
2022/04/19 08:15:05;;;;;;;2.87;2.60;;;;;;;13.94;70.08;99931.88;5040201;28;20187;-55
2022/04/19 08:17:34;;;;;;;3.70;2.67;;;;;;;13.87;70.30;99932.94;5039537;28;20602;-55
2022/04/19 08:20:01;;;;;;;2.73;2.30;;;;;;;13.76;70.61;99935.88;5042349;28;20198;-54
2022/04/19 08:22:26;;;;;;;2.30;2.10;;;;;;;13.65;70.27;99928.34;5042648;28;20668;-54
2022/04/19 08:24:52;;;;;;;7.03;2.63;;;;;;;13.59;70.49;99925.91;5036220;28;20221;-55
2022/04/19 08:27:17;;;;;;;3.00;2.70;;;;;;;13.54;71.07;99930.38;5037209;28;20554;-54
2022/04/19 08:29:43;;;;;;;2.80;2.60;;;;;;;13.48;71.18;99920.16;5038231;28;20271;-54
2022/04/19 08:32:09;;;;;;;3.27;2.73;;;;;;;13.59;70.34;99922.47;5041660;28;20186;-55
2022/04/19 08:34:35;;;;;;;3.50;2.83;;;;;;;13.60;70.08;99921.56;5043415;28;20242;-54
2022/04/19 08:37:02;;;;;;;2.67;2.37;;;;;;;13.55;70.15;99926.88;5025075;28;20341;-55
2022/04/19 08:39:27;;;;;;;3.87;3.20;;;;;;;13.59;70.26;99922.47;5044393;28;20240;-54
2022/04/19 08:41:53;;;;;;;3.57;3.13;;;;;;;13.60;69.35;99925.00;5039662;28;20562;-54
2022/04/19 08:44:19;;;;;;;2.90;2.40;;;;;;;13.63;69.69;99919.72;5028728;28;20202;-55
2022/04/19 08:46:45;;;;;;;2.60;2.37;;;;;;;13.70;69.96;99915.22;5040289;28;20190;-55
2022/04/19 08:49:12;;;;;;;3.50;2.80;;;;;;;13.77;69.84;99916.72;5037837;28;20213;-53
2022/04/19 08:51:39;;;;;;;3.13;2.83;;;;;;;13.86;69.85;99916.50;5041014;28;20279;-54
2022/04/19 08:59:33;;;;;;;4.53;3.07;;;;;;;14.13;70.32;99910.53;5042538;28;22044;-54
2022/04/19 09:01:59;;;;;;;3.53;2.67;;;;;;;14.25;69.82;99906.69;5042090;28;20221;-56
2022/04/19 09:04:25;;;;;;;3.27;2.97;;;;;;;14.42;69.00;99911.41;5043484;28;20594;-56
2022/04/19 09:06:58;;;;;;;4.10;3.70;;;;;;;14.53;68.93;99905.84;5040853;28;20189;-56
2022/04/19 09:09:30;;;;;;;4.97;3.43;;;;;;;14.56;69.06;99903.13;5049447;28;20189;-54
2022/04/19 09:12:10;;;;;;;4.00;3.57;;;;;;;14.68;68.36;99901.94;5045240;28;20197;-56
2022/04/19 09:14:36;;;;;;;3.50;3.13;;;;;;;14.61;68.46;99904.69;5041479;28;20192;-54
2022/04/19 09:17:04;;;;;;;3.97;3.00;;;;;;;14.71;68.67;99907.06;5041213;28;20229;-56
2022/04/19 09:19:29;;;;;;;3.50;2.50;;;;;;;14.81;64.76;99898.03;5044453;28;20183;-54
2022/04/19 09:21:55;;;;;;;2.37;2.17;;;;;;;14.89;64.93;99898.63;5048183;28;20183;-56
2022/04/19 09:24:22;;;;;;;3.80;2.47;;;;;;;14.93;64.94;99895.00;5041365;28;20220;-54
2022/04/19 09:26:49;;;;;;;2.97;2.23;;;;;;;14.97;63.89;99885.34;5042823;28;20186;-54
2022/04/19 09:29:25;;;;;;;3.63;2.73;;;;;;;15.03;63.06;99886.91;5044336;28;20187;-55
2022/04/19 09:31:57;;;;;;;2.27;2.07;;;;;;;15.15;62.92;99885.59;5040924;28;20178;-55
2022/04/19 09:34:23;;;;;;;2.93;2.47;;;;;;;15.32;62.10;99885.88;5042656;28;20289;-54
2022/04/19 09:36:53;;;;;;;3.60;2.67;;;;;;;15.41;61.81;99882.09;5040508;28;20266;-54
2022/04/19 09:39:26;;;;;;;4.10;2.70;;;;;;;15.55;61.53;99882.44;5047007;28;20197;-54
2022/04/19 09:42:25;;;;;;;3.97;2.67;;;;;;;15.57;60.83;99871.97;5035783;28;20198;-56
2022/04/19 09:44:52;;;;;;;4.23;3.20;;;;;;;15.53;60.19;99876.44;5023759;28;20230;-55
2022/04/19 09:47:17;;;;;;;3.43;3.03;;;;;;;15.64;59.54;99876.06;5041764;28;20236;-57
2022/04/19 09:49:53;;;;;;;4.07;2.67;;;;;;;15.76;59.63;99868.66;5040784;28;20712;-55
2022/04/19 09:52:21;;;;;;;2.90;2.60;;;;;;;15.90;59.23;99860.38;5033610;28;20198;-56
2022/04/19 09:55:03;;;;;;;3.60;3.30;;;;;;;15.99;58.49;99860.88;5037053;28;20190;-54
2022/04/19 09:57:31;;;;;;;2.77;2.57;;;;;;;16.03;59.27;99860.75;5037600;28;20183;-54
2022/04/19 09:59:59;;;;;;;4.00;2.60;;;;;;;16.09;59.18;99864.00;5042141;28;20648;-55
2022/04/19 10:08:13;;;;;;;2.67;2.23;;;;;;;16.30;59.74;99849.25;5045290;28;20668;-55
2022/04/19 10:10:39;;;;;;;4.13;2.77;;;;;;;16.28;57.94;99847.56;5037476;28;20216;-56
2022/04/19 10:13:06;;;;;;;8.20;3.20;;;;;;;16.18;55.85;99843.63;5044780;28;20207;-54
2022/04/19 10:15:32;;;;;;;2.93;2.60;;;;;;;16.17;55.72;99842.81;5044410;28;20228;-56
2022/04/19 10:17:57;;;;;;;2.90;2.60;;;;;;;16.27;56.35;99838.91;5046606;28;20248;-54
2022/04/19 10:20:31;;;;;;;3.43;2.93;;;;;;;16.49;56.59;99838.03;5046719;28;20279;-56
2022/04/19 10:23:03;;;;;;;3.47;2.70;;;;;;;16.56;56.07;99838.66;5044259;28;20204;-55
2022/04/19 10:25:43;;;;;;;2.67;2.47;;;;;;;16.58;56.08;99836.81;5042748;28;20252;-56
2022/04/19 10:28:08;;;;;;;3.53;3.23;;;;;;;16.72;55.42;99831.00;5037790;28;20678;-54
2022/04/19 10:30:39;;;;;;;3.47;2.60;;;;;;;16.84;55.41;99832.28;5027877;28;20187;-55
2022/04/19 10:33:39;;;;;;;3.60;3.30;;;;;;;16.92;54.99;99824.94;5040874;28;20294;-54
2022/04/19 10:36:14;;;;;;;3.20;2.90;;;;;;;17.08;55.59;99825.19;5037599;28;20179;-54
2022/04/19 10:38:41;;;;;;;3.30;2.93;;;;;;;17.17;55.34;99813.44;5042370;28;20182;-54
2022/04/19 10:41:07;;;;;;;5.13;3.00;;;;;;;17.12;53.82;99825.88;5043082;28;20195;-52
2022/04/19 10:43:32;;;;;;;3.43;3.13;;;;;;;17.03;53.69;99827.13;5044694;28;20206;-56
2022/04/19 10:46:20;;;;;;;5.23;3.53;;;;;;;16.92;53.41;99812.75;5045442;28;20211;-55
2022/04/19 10:49:23;;;;;;;3.97;3.53;;;;;;;17.12;54.06;99810.19;5041429;28;21240;-55
2022/04/19 10:52:01;;;;;;;4.80;3.33;;;;;;;17.28;53.13;99803.38;5037168;28;20191;-56
2022/04/19 10:55:02;;;;;;;4.40;3.10;;;;;;;17.31;51.75;99807.63;5039031;28;20709;-54
2022/04/19 11:00:34;;;;;;;4.60;3.13;;;;;;;17.29;52.93;99809.44;5042531;28;20204;-53
2022/04/19 11:03:13;;;;;;;5.00;3.10;;;;;;;17.19;51.53;99807.25;5044180;28;20216;-53
2022/04/19 11:05:50;;;;;;;3.93;3.30;;;;;;;17.56;50.96;99801.25;5036739;28;20261;-57
2022/04/19 11:08:24;;;;;;;3.80;3.50;;;;;;;17.57;50.66;99798.59;5042630;28;20195;-54
2022/04/19 11:10:50;;;;;;;4.23;3.70;;;;;;;17.66;49.59;99794.69;5036810;28;20187;-54
2022/04/19 11:13:16;;;;;;;3.23;2.93;;;;;;;17.62;50.54;99803.59;5044680;28;20214;-55
2022/04/19 11:15:42;;;;;;;3.40;3.10;;;;;;;17.57;50.30;99789.88;5040847;28;20226;-55
2022/04/19 11:18:26;;;;;;;3.97;3.03;;;;;;;17.72;50.73;99783.94;5040103;28;20273;-55
2022/04/19 11:20:57;;;;;;;2.80;2.57;;;;;;;17.53;49.47;99789.19;5023943;28;20241;-54
2022/04/19 11:23:27;;;;;;;3.07;2.80;;;;;;;17.52;48.36;99782.25;5043411;28;20238;-56
2022/04/19 11:25:56;;;;;;;3.00;2.30;;;;;;;17.66;49.58;99779.00;5025626;28;20213;-55
2022/04/19 11:28:30;;;;;;;4.13;2.80;;;;;;;17.76;51.08;99771.56;5050298;28;20174;-54
2022/04/19 11:30:55;;;;;;;3.40;2.57;;;;;;;17.79;50.92;99782.75;5044525;28;20187;-53
2022/04/19 11:33:21;;;;;;;5.30;2.83;;;;;;;17.72;48.67;99786.53;5041013;28;20205;-55
2022/04/19 11:36:20;;;;;;;4.87;2.43;;;;;;;17.87;48.37;99773.66;5039283;28;20270;-54
2022/04/19 11:38:47;;;;;;;5.73;2.73;;;;;;;17.81;49.40;99773.06;5031576;28;20205;-53
2022/04/19 11:46:45;;;;;;;5.00;2.57;;;;;;;18.12;48.42;99761.13;5039381;28;20507;-54
2022/04/19 11:49:16;;;;;;;2.80;2.60;;;;;;;18.16;46.81;99764.44;5040939;28;20184;-53
2022/04/19 11:51:49;;;;;;;10.53;2.67;;;;;;;18.04;48.15;99760.63;5035252;28;20372;-54
2022/04/19 11:54:33;;;;;;;7.27;3.10;;;;;;;18.10;48.69;99756.88;5043230;28;20228;-53
2022/04/19 11:57:12;;;;;;;6.77;3.10;;;;;;;18.16;48.30;99759.22;5044012;28;20179;-54
2022/04/19 11:59:41;;;;;;;3.43;2.50;;;;;;;18.06;47.89;99758.81;5037376;28;20195;-53
2022/04/19 12:02:19;;;;;;;5.93;2.43;;;;;;;17.86;48.54;99753.63;5039858;28;20203;-53
2022/04/19 12:04:52;;;;;;;6.40;2.67;;;;;;;18.18;48.04;99762.59;5038055;28;20269;-53
2022/04/19 12:07:19;;;;;;;3.47;2.17;;;;;;;18.23;46.58;99750.09;5040927;28;20186;-56
2022/04/19 12:09:46;;;;;;;4.53;2.70;;;;;;;18.12;47.43;99744.56;5047166;28;20846;-52
2022/04/19 12:12:13;;;;;;;7.80;3.03;;;;;;;18.24;47.34;99735.25;5048641;28;20194;-54
2022/04/19 12:14:38;;;;;;;4.77;2.77;;;;;;;18.12;47.98;99752.41;5049475;28;20194;-53
2022/04/19 12:17:10;;;;;;;5.03;2.50;;;;;;;18.30;46.73;99744.56;5045244;28;20192;-54
2022/04/19 12:19:42;;;;;;;2.63;2.20;;;;;;;18.39;48.66;99742.34;5047846;28;20201;-52
2022/04/19 12:22:34;;;;;;;3.37;2.43;;;;;;;18.17;47.53;99747.81;5045460;28;20198;-54